Time;durP1;ratioP1;P1;durP2;ratioP2;P2;SDS_P1;SDS_P2;PMS_P1;PMS_P2;Temp;Humidity;BMP_temperature;BMP_pressure;BME280_temperature;BME280_humidity;BME280_pressure;Samples;Min_cycle;Max_cycle;Signal;HPM_P1;HPM_P2
2023/05/23 00:01:30;;;;;;;12.63;4.43;;;14.80;99.90;;;;;;5084668;28;20044;-70
2023/05/23 00:03:56;;;;;;;21.95;5.07;;;14.70;99.90;;;;;;5086671;28;20028;-69
2023/05/23 00:06:22;;;;;;;15.35;5.13;;;14.80;99.90;;;;;;5090339;28;20071;-70
2023/05/23 00:08:48;;;;;;;14.80;4.50;;;14.80;99.90;;;;;;5097215;28;20048;-69
2023/05/23 00:11:19;;;;;;;11.23;4.68;;;14.70;99.90;;;;;;5089141;28;20032;-70
2023/05/23 00:13:44;;;;;;;13.70;5.38;;;14.70;99.90;;;;;;5085862;28;20391;-71
2023/05/23 00:16:13;;;;;;;18.30;4.75;;;14.60;99.90;;;;;;5085659;28;20103;-70
2023/05/23 00:18:41;;;;;;;25.92;6.95;;;14.60;99.90;;;;;;5084979;28;20063;-72
2023/05/23 00:21:08;;;;;;;14.45;5.38;;;14.60;99.90;;;;;;5088729;28;20359;-69
2023/05/23 00:23:42;;;;;;;16.38;5.05;;;14.60;99.90;;;;;;5086006;28;20028;-70
2023/05/23 00:26:09;;;;;;;18.60;5.82;;;14.60;99.90;;;;;;5085421;28;20131;-70
2023/05/23 00:28:36;;;;;;;15.40;4.90;;;14.60;99.90;;;;;;5086947;28;20039;-70
2023/05/23 00:31:06;;;;;;;16.02;5.10;;;14.60;99.90;;;;;;5083780;28;20529;-71
2023/05/23 00:33:33;;;;;;;21.40;5.68;;;14.60;99.90;;;;;;5087803;28;20035;-70
2023/05/23 00:35:59;;;;;;;15.15;5.13;;;14.60;99.90;;;;;;5085798;28;20035;-71
2023/05/23 00:38:30;;;;;;;15.85;4.20;;;14.50;99.90;;;;;;5088295;28;20663;-72
2023/05/23 00:40:56;;;;;;;15.60;5.15;;;14.50;99.90;;;;;;5089101;28;20024;-71
2023/05/23 00:43:21;;;;;;;20.13;6.07;;;14.40;99.90;;;;;;5091902;28;20032;-71
2023/05/23 00:45:50;;;;;;;13.65;4.53;;;14.40;99.90;;;;;;5089105;28;20038;-71
2023/05/23 00:48:16;;;;;;;14.70;4.65;;;14.40;99.90;;;;;;5097973;28;20716;-69
2023/05/23 00:50:45;;;;;;;14.00;4.03;;;14.40;99.90;;;;;;5087930;28;20032;-71
2023/05/23 00:53:12;;;;;;;17.40;4.00;;;14.50;99.90;;;;;;5086771;28;20028;-69
2023/05/23 00:55:38;;;;;;;14.85;4.57;;;14.50;99.90;;;;;;5085951;28;20040;-70
2023/05/23 00:58:06;;;;;;;14.57;4.85;;;14.40;99.90;;;;;;5089851;28;20084;-70
2023/05/23 01:00:37;;;;;;;15.50;4.85;;;14.40;99.90;;;;;;5085546;28;20032;-71
2023/05/23 01:03:05;;;;;;;;;;;14.40;99.90;;;;;;5087876;28;20024;-71
2023/05/23 01:05:34;;;;;;;11.15;4.10;;;14.40;99.90;;;;;;5085750;28;20002;-70
2023/05/23 01:08:02;;;;;;;17.00;3.92;;;14.40;99.90;;;;;;5084840;28;20028;-70
2023/05/23 01:10:29;;;;;;;7.05;3.17;;;14.40;99.90;;;;;;5084176;28;20036;-69
2023/05/23 01:13:17;;;;;;;10.13;3.22;;;14.40;99.90;;;;;;5083959;28;20047;-72
2023/05/23 01:16:17;;;;;;;10.80;2.92;;;14.40;99.90;;;;;;5097111;28;20135;-68
2023/05/23 01:19:03;;;;;;;7.00;2.27;;;14.40;99.90;;;;;;5089663;28;20071;-69
2023/05/23 01:21:37;;;;;;;7.15;2.40;;;14.40;99.90;;;;;;5089521;28;20828;-70
2023/05/23 01:24:35;;;;;;;7.18;2.90;;;14.40;99.90;;;;;;5087268;28;20480;-71
2023/05/23 01:27:38;;;;;;;5.93;2.35;;;14.30;99.90;;;;;;5082765;28;20063;-71
2023/05/23 01:30:06;;;;;;;7.65;2.53;;;14.40;99.90;;;;;;5080902;28;20048;-70
2023/05/23 01:32:36;;;;;;;5.22;2.03;;;14.30;99.90;;;;;;5089183;28;20032;-71
2023/05/23 01:35:02;;;;;;;7.67;2.30;;;14.30;99.90;;;;;;5086826;28;20195;-71
2023/05/23 01:37:33;;;;;;;6.03;2.47;;;14.30;99.90;;;;;;5087463;28;20266;-71
2023/05/23 01:39:59;;;;;;;11.52;3.40;;;14.30;99.90;;;;;;5094248;28;20031;-70
2023/05/23 01:42:26;;;;;;;7.18;2.10;;;14.30;99.90;;;;;;5088462;28;20036;-74
2023/05/23 01:44:58;;;;;;;7.88;2.50;;;14.30;99.90;;;;;;5086964;28;20070;-69
2023/05/23 01:47:30;;;;;;;6.93;2.78;;;14.30;99.90;;;;;;5088627;28;20036;-73
2023/05/23 01:49:57;;;;;;;8.45;2.58;;;14.30;99.90;;;;;;5086094;28;20043;-70
2023/05/23 01:52:29;;;;;;;7.82;2.53;;;14.30;99.90;;;;;;5087133;28;20043;-72
2023/05/23 01:54:55;;;;;;;6.57;3.25;;;14.30;99.90;;;;;;5084063;28;20043;-70
2023/05/23 01:57:22;;;;;;;7.63;2.55;;;14.30;99.90;;;;;;5094081;28;20055;-70
2023/05/23 01:59:49;;;;;;;7.47;3.08;;;14.40;99.90;;;;;;5095146;28;20139;-71
2023/05/23 02:02:21;;;;;;;8.25;2.63;;;14.30;99.90;;;;;;5088726;28;20131;-69
2023/05/23 02:04:57;;;;;;;6.13;2.75;;;14.30;99.90;;;;;;5095453;27;20662;-70
2023/05/23 02:07:25;;;;;;;7.63;2.67;;;14.30;99.90;;;;;;5096554;28;20055;-70
2023/05/23 02:09:51;;;;;;;8.98;2.78;;;14.30;99.90;;;;;;5077821;28;20031;-70
2023/05/23 02:12:19;;;;;;;11.23;3.28;;;14.30;99.90;;;;;;5087057;28;20063;-71
2023/05/23 02:14:45;;;;;;;8.55;3.53;;;14.30;99.90;;;;;;5086165;28;20044;-71
2023/05/23 02:17:13;;;;;;;9.45;3.13;;;14.30;99.90;;;;;;5086602;28;20031;-70
2023/05/23 02:19:39;;;;;;;10.10;3.20;;;14.30;99.90;;;;;;5101250;28;20104;-71
2023/05/23 02:22:05;;;;;;;9.65;3.75;;;14.30;99.90;;;;;;5092584;28;20496;-70
2023/05/23 02:24:33;;;;;;;13.25;3.80;;;14.20;99.90;;;;;;5085270;28;20112;-70
2023/05/23 02:26:59;;;;;;;13.90;3.50;;;14.30;99.90;;;;;;5095228;28;20025;-69
2023/05/23 02:29:31;;;;;;;10.20;3.25;;;14.30;99.90;;;;;;5088370;28;20051;-71
2023/05/23 02:31:57;;;;;;;11.07;3.75;;;14.30;99.90;;;;;;5085620;28;20036;-70
2023/05/23 02:34:25;;;;;;;12.52;3.47;;;14.40;99.90;;;;;;5086296;28;20051;-70
2023/05/23 02:36:56;;;;;;;13.85;3.80;;;14.30;99.90;;;;;;5085493;28;20027;-70
2023/05/23 02:39:22;;;;;;;10.13;2.70;;;14.40;99.90;;;;;;5088026;28;20028;-70
2023/05/23 02:41:47;;;;;;;11.02;3.17;;;14.40;99.90;;;;;;5096654;28;20027;-72
2023/05/23 02:44:19;;;;;;;10.60;3.35;;;14.30;99.90;;;;;;5094373;28;20114;-69
2023/05/23 02:46:45;;;;;;;13.57;3.20;;;14.30;99.90;;;;;;5088300;28;20028;-70
2023/05/23 02:49:13;;;;;;;16.05;3.97;;;14.30;99.90;;;;;;5087468;28;20028;-71
2023/05/23 02:51:39;;;;;;;11.88;4.18;;;14.30;99.90;;;;;;5087111;28;20036;-72
2023/05/23 02:54:05;;;;;;;10.88;3.78;;;14.30;99.90;;;;;;5080403;28;20051;-70
2023/05/23 02:56:30;;;;;;;9.52;3.97;;;14.30;99.90;;;;;;5083246;28;20040;-70
2023/05/23 02:58:56;;;;;;;11.40;3.80;;;14.20;99.90;;;;;;5085249;28;20028;-72
2023/05/23 03:01:22;;;;;;;15.60;4.35;;;14.20;99.90;;;;;;5086180;28;20035;-69
2023/05/23 03:03:50;;;;;;;15.45;4.05;;;14.20;99.90;;;;;;5086214;28;20028;-72
2023/05/23 03:06:16;;;;;;;14.35;3.85;;;14.20;99.90;;;;;;5091810;28;20032;-70
2023/05/23 03:08:42;;;;;;;13.32;3.60;;;14.20;99.90;;;;;;5087674;28;20763;-69
2023/05/23 03:11:10;;;;;;;12.70;3.80;;;14.20;99.90;;;;;;5091890;28;20119;-70
2023/05/23 03:13:39;;;;;;;9.65;3.67;;;14.20;99.90;;;;;;5090888;28;20039;-70
2023/05/23 03:16:05;;;;;;;15.77;4.47;;;14.20;99.90;;;;;;5085850;28;20089;-70
2023/05/23 03:18:30;;;;;;;13.40;4.50;;;14.10;99.90;;;;;;5088325;28;20036;-70
2023/05/23 03:20:59;;;;;;;10.13;3.88;;;14.10;99.90;;;;;;5084842;28;20024;-69
2023/05/23 03:23:25;;;;;;;13.32;3.70;;;14.10;99.90;;;;;;5086262;28;20089;-72
2023/05/23 03:25:50;;;;;;;17.52;4.43;;;14.10;99.90;;;;;;5084514;28;20032;-72
2023/05/23 03:28:16;;;;;;;12.73;3.22;;;14.10;99.90;;;;;;5093863;28;20033;-72
2023/05/23 03:30:41;;;;;;;16.60;4.10;;;14.00;99.90;;;;;;5088059;28;20043;-71
2023/05/23 03:33:15;;;;;;;15.55;4.43;;;14.00;99.90;;;;;;5085259;28;20028;-71
2023/05/23 03:35:41;;;;;;;18.05;5.13;;;14.00;99.90;;;;;;5087660;28;20442;-69
2023/05/23 03:38:09;;;;;;;19.55;4.20;;;14.00;99.90;;;;;;5091126;28;20069;-70
2023/05/23 03:40:35;;;;;;;16.35;4.05;;;13.90;99.90;;;;;;5089098;28;20039;-70
2023/05/23 03:43:05;;;;;;;17.33;3.60;;;13.90;99.90;;;;;;5086070;28;20020;-69
2023/05/23 03:45:31;;;;;;;8.53;3.67;;;14.00;99.90;;;;;;5087015;28;20031;-70
2023/05/23 03:47:57;;;;;;;18.23;3.80;;;14.00;99.90;;;;;;5085741;28;20288;-70
2023/05/23 03:50:30;;;;;;;11.18;3.55;;;14.00;99.90;;;;;;5091965;28;20042;-71
2023/05/23 03:52:55;;;;;;;15.02;3.45;;;13.90;99.90;;;;;;5075593;28;20044;-72
2023/05/23 03:55:22;;;;;;;12.45;2.75;;;13.90;99.90;;;;;;5085285;28;20365;-69
2023/05/23 03:57:49;;;;;;;12.88;3.60;;;13.90;99.90;;;;;;5082421;28;20540;-71
2023/05/23 04:00:15;;;;;;;11.93;2.88;;;13.90;99.90;;;;;;5085134;28;20055;-70
2023/05/23 04:02:42;;;;;;;10.30;3.05;;;13.90;99.90;;;;;;5090696;28;20027;-69
2023/05/23 04:05:13;;;;;;;11.65;2.28;;;13.80;99.90;;;;;;5084800;28;20036;-70
2023/05/23 04:07:40;;;;;;;23.42;3.38;;;13.80;99.90;;;;;;5084331;28;20085;-70
2023/05/23 04:10:06;;;;;;;12.93;2.30;;;13.70;99.90;;;;;;5084063;28;20028;-70
2023/05/23 04:12:33;;;;;;;12.18;2.92;;;13.70;99.90;;;;;;5086619;28;20028;-71
2023/05/23 04:14:58;;;;;;;12.85;2.30;;;13.70;99.90;;;;;;5086944;28;20032;-71
2023/05/23 04:17:29;;;;;;;8.20;2.38;;;13.60;99.90;;;;;;5091871;28;20032;-70
2023/05/23 04:19:55;;;;;;;;;;;13.60;99.90;;;;;;5086492;28;20032;-69
2023/05/23 04:22:26;;;;;;;6.85;1.85;;;13.70;99.90;;;;;;5088535;28;19911;-70
2023/05/23 04:24:52;;;;;;;12.05;3.55;;;13.60;99.90;;;;;;5092301;28;20075;-71
2023/05/23 04:27:17;;;;;;;7.65;1.77;;;13.50;99.90;;;;;;5093038;28;20060;-71
2023/05/23 04:29:45;;;;;;;6.57;2.03;;;13.50;99.90;;;;;;5087847;28;20036;-70
2023/05/23 04:32:15;;;;;;;7.18;2.15;;;13.40;99.90;;;;;;5085689;28;20467;-71
2023/05/23 04:34:41;;;;;;;4.63;1.52;;;13.40;99.90;;;;;;5087508;28;20112;-73
2023/05/23 04:37:08;;;;;;;7.80;1.80;;;13.40;99.90;;;;;;5101745;28;20119;-69
2023/05/23 04:39:37;;;;;;;10.98;2.17;;;13.40;99.90;;;;;;5086943;28;20043;-72
2023/05/23 04:42:03;;;;;;;5.70;1.33;;;13.40;99.90;;;;;;5084465;28;20508;-69
2023/05/23 04:44:37;;;;;;;7.30;1.33;;;13.40;99.90;;;;;;5085837;28;20146;-69
2023/05/23 04:47:03;;;;;;;9.55;1.80;;;13.40;99.90;;;;;;5077804;28;20144;-71
2023/05/23 04:49:29;;;;;;;8.57;1.73;;;13.40;99.90;;;;;;5092412;28;20059;-71
2023/05/23 04:51:55;;;;;;;5.70;1.90;;;13.40;99.90;;;;;;5090228;28;20047;-72
2023/05/23 04:54:20;;;;;;;11.85;2.55;;;13.40;99.90;;;;;;5089478;28;20040;-70
2023/05/23 04:56:46;;;;;;;8.50;2.00;;;13.40;99.90;;;;;;5089037;28;20298;-69
2023/05/23 04:59:12;;;;;;;5.90;1.50;;;13.40;99.90;;;;;;5087356;28;20024;-68
2023/05/23 05:01:40;;;;;;;5.63;2.20;;;13.30;99.90;;;;;;5092100;28;20068;-71
2023/05/23 05:04:06;;;;;;;6.07;1.40;;;13.30;99.90;;;;;;5084975;28;20122;-70
2023/05/23 05:06:32;;;;;;;5.72;1.52;;;13.30;99.90;;;;;;5089212;28;20154;-70
2023/05/23 05:08:58;;;;;;;3.88;1.48;;;13.30;99.90;;;;;;5088548;28;20090;-71
2023/05/23 05:11:29;;;;;;;7.65;2.03;;;13.30;99.90;;;;;;5088075;28;20028;-69
2023/05/23 05:13:55;;;;;;;11.27;2.00;;;13.30;99.90;;;;;;5086966;28;20036;-70
2023/05/23 05:16:21;;;;;;;5.78;1.67;;;13.30;99.90;;;;;;5087837;28;20039;-69
2023/05/23 05:18:50;;;;;;;9.68;2.10;;;13.30;99.90;;;;;;5086143;28;20027;-70
2023/05/23 05:21:15;;;;;;;8.75;1.70;;;13.30;99.90;;;;;;5088210;28;20052;-69
2023/05/23 05:23:42;;;;;;;7.32;2.22;;;13.30;99.90;;;;;;5086496;28;20048;-69
2023/05/23 05:26:08;;;;;;;10.73;2.17;;;13.30;99.90;;;;;;5084411;28;20035;-70
2023/05/23 05:28:34;;;;;;;7.70;2.08;;;13.40;99.90;;;;;;5087179;28;20032;-71
2023/05/23 05:31:03;;;;;;;5.75;2.42;;;13.50;99.90;;;;;;5085459;28;20029;-70
2023/05/23 05:33:34;;;;;;;12.38;1.90;;;13.50;99.90;;;;;;5094656;28;20043;-69
2023/05/23 05:36:03;;;;;;;10.95;2.10;;;13.60;99.90;;;;;;5088717;28;20043;-72
2023/05/23 05:38:29;;;;;;;9.25;2.22;;;13.70;99.90;;;;;;5089098;28;20048;-72
2023/05/23 05:40:54;;;;;;;9.27;2.22;;;13.60;99.90;;;;;;5085942;28;20044;-70
2023/05/23 05:43:21;;;;;;;7.65;1.80;;;13.60;99.90;;;;;;5086220;28;20032;-69
2023/05/23 05:45:46;;;;;;;7.60;2.58;;;13.60;99.90;;;;;;5089598;28;20541;-71
2023/05/23 05:48:12;;;;;;;9.75;3.60;;;13.70;99.90;;;;;;5086164;28;20028;-70
2023/05/23 05:50:38;;;;;;;10.63;2.67;;;13.80;99.90;;;;;;5085753;28;20050;-72
2023/05/23 05:53:03;;;;;;;8.27;1.88;;;13.80;99.90;;;;;;5084680;28;20044;-69
2023/05/23 05:55:29;;;;;;;6.90;2.30;;;13.70;99.90;;;;;;5090334;28;20514;-71
2023/05/23 05:57:55;;;;;;;8.38;1.80;;;13.70;99.90;;;;;;5086533;28;20047;-69
2023/05/23 06:00:26;;;;;;;26.52;3.42;;;13.70;99.90;;;;;;5089229;28;20115;-70
2023/05/23 06:02:56;;;;;;;18.95;3.20;;;13.70;99.90;;;;;;5085260;28;20147;-72
2023/05/23 06:05:22;;;;;;;12.73;2.50;;;13.60;99.90;;;;;;5085399;28;20035;-70
2023/05/23 06:07:48;;;;;;;8.25;2.33;;;13.60;99.90;;;;;;5084662;28;20491;-73
2023/05/23 06:10:17;;;;;;;9.15;2.25;;;13.60;99.90;;;;;;5088265;28;20118;-71
2023/05/23 06:12:44;;;;;;;8.43;2.33;;;13.70;99.90;;;;;;5087986;28;20108;-71
2023/05/23 06:15:13;;;;;;;9.95;2.30;;;13.70;99.90;;;;;;5082681;28;20036;-69
2023/05/23 06:17:39;;;;;;;8.50;2.35;;;13.60;99.90;;;;;;5083984;28;20541;-73
2023/05/23 06:20:07;;;;;;;7.60;1.88;;;13.60;99.90;;;;;;5085531;28;20027;-68
2023/05/23 06:22:33;;;;;;;6.25;2.03;;;13.70;99.90;;;;;;5087847;28;20078;-74
2023/05/23 06:24:58;;;;;;;8.90;2.13;;;13.60;99.90;;;;;;5085838;28;20048;-69
2023/05/23 06:27:27;;;;;;;8.05;2.50;;;13.50;99.90;;;;;;5089299;28;20032;-67
2023/05/23 06:29:53;;;;;;;8.95;2.25;;;13.40;99.90;;;;;;5089002;28;20036;-69
2023/05/23 06:32:18;;;;;;;7.60;2.38;;;13.40;99.90;;;;;;5087133;28;20081;-72
2023/05/23 06:34:44;;;;;;;6.25;2.30;;;13.50;99.90;;;;;;5085995;28;20036;-70
2023/05/23 06:37:09;;;;;;;6.85;2.00;;;13.50;99.90;;;;;;5088042;28;20047;-73
2023/05/23 06:39:35;;;;;;;6.72;2.45;;;13.50;99.90;;;;;;5084409;28;20038;-71
2023/05/23 06:42:01;;;;;;;5.20;1.50;;;13.40;99.90;;;;;;5088376;27;20028;-70
2023/05/23 06:44:26;;;;;;;6.22;2.17;;;13.50;99.90;;;;;;5084074;28;20020;-69
2023/05/23 06:46:56;;;;;;;4.05;1.70;;;13.50;99.90;;;;;;5084848;28;20040;-70
2023/05/23 06:49:22;;;;;;;6.70;1.40;;;13.50;99.90;;;;;;5085716;28;20034;-69
2023/05/23 06:51:48;;;;;;;4.82;1.20;;;13.40;99.90;;;;;;5085803;28;20090;-73
2023/05/23 06:54:14;;;;;;;6.60;1.80;;;13.40;99.90;;;;;;5083598;28;20559;-71
2023/05/23 06:56:39;;;;;;;5.07;1.80;;;13.30;99.90;;;;;;5082924;28;20629;-70
2023/05/23 06:59:05;;;;;;;7.80;1.95;;;13.30;99.90;;;;;;5088548;28;20035;-70
2023/05/23 07:01:33;;;;;;;6.97;1.63;;;13.20;99.90;;;;;;5083974;28;20055;-70
2023/05/23 07:03:59;;;;;;;2.35;0.60;;;13.20;99.90;;;;;;5084598;28;20099;-69
2023/05/23 07:06:28;;;;;;;4.57;1.55;;;13.30;99.90;;;;;;5085717;28;20120;-71
2023/05/23 07:08:53;;;;;;;8.18;1.52;;;13.30;99.90;;;;;;5088575;28;20123;-74
2023/05/23 07:11:22;;;;;;;9.32;1.40;;;13.30;99.90;;;;;;5083603;28;20101;-70
2023/05/23 07:13:47;;;;;;;11.13;1.23;;;13.30;99.90;;;;;;5084587;28;20078;-70
2023/05/23 07:16:13;;;;;;;10.18;0.75;;;13.40;99.90;;;;;;5086757;28;20040;-72
2023/05/23 07:18:38;;;;;;;4.63;0.95;;;13.50;99.90;;;;;;5084932;28;20511;-71
2023/05/23 07:21:04;;;;;;;4.40;1.05;;;13.70;99.90;;;;;;5086265;28;20099;-71
2023/05/23 07:23:33;;;;;;;10.60;0.77;;;13.90;99.90;;;;;;5089015;28;20100;-70
2023/05/23 07:25:59;;;;;;;4.78;1.10;;;14.30;99.90;;;;;;5083716;28;20127;-72
2023/05/23 07:28:25;;;;;;;6.03;1.17;;;14.70;99.90;;;;;;5092006;28;20027;-73
2023/05/23 07:30:51;;;;;;;7.30;1.80;;;14.80;99.90;;;;;;5088783;28;20032;-69
2023/05/23 07:33:28;;;;;;;11.40;1.48;;;14.70;99.90;;;;;;5089243;28;20036;-69
2023/05/23 07:35:54;;;;;;;12.68;2.00;;;14.50;99.90;;;;;;5091623;28;20036;-69
2023/05/23 07:38:20;;;;;;;7.55;1.48;;;14.50;99.90;;;;;;5087732;28;20084;-69
2023/05/23 07:40:45;;;;;;;9.00;2.45;;;14.60;99.90;;;;;;5085432;28;20055;-69
2023/05/23 07:43:17;;;;;;;11.32;1.17;;;14.90;99.90;;;;;;5085794;28;20035;-70
2023/05/23 07:45:42;;;;;;;5.32;1.67;;;15.30;99.90;;;;;;5082823;28;20075;-71
2023/05/23 07:48:08;;;;;;;7.65;1.50;;;15.30;99.90;;;;;;5082204;28;20232;-72
2023/05/23 07:50:34;;;;;;;8.45;1.55;;;15.50;99.90;;;;;;5086017;28;20104;-73
2023/05/23 07:53:02;;;;;;;11.00;1.55;;;15.90;99.90;;;;;;5081355;28;20373;-71
2023/05/23 07:55:27;;;;;;;7.82;2.63;;;16.00;99.90;;;;;;5081310;28;20662;-72
2023/05/23 07:57:55;;;;;;;7.53;1.13;;;16.10;99.90;;;;;;5084008;28;20072;-70
2023/05/23 08:00:20;;;;;;;8.57;1.35;;;16.00;99.90;;;;;;5082974;28;20167;-71
2023/05/23 08:02:46;;;;;;;4.47;1.23;;;15.80;99.90;;;;;;5084639;28;20115;-72
2023/05/23 08:05:12;;;;;;;5.28;1.25;;;15.80;99.90;;;;;;5082275;28;20039;-69
2023/05/23 08:07:43;;;;;;;11.75;1.23;;;15.60;99.90;;;;;;5083145;28;20373;-70
2023/05/23 08:10:09;;;;;;;7.38;1.83;;;15.80;99.90;;;;;;5083158;28;20035;-69
2023/05/23 08:12:41;;;;;;;6.80;1.50;;;15.80;99.90;;;;;;5087420;28;20032;-73
2023/05/23 08:15:08;;;;;;;10.73;1.17;;;15.90;99.90;;;;;;5115459;27;20127;-67
2023/05/23 08:17:33;;;;;;;9.32;1.15;;;16.00;99.90;;;;;;5082629;28;20048;-71
2023/05/23 08:20:00;;;;;;;10.05;1.45;;;16.10;99.90;;;;;;5083866;28;20058;-70
2023/05/23 08:22:31;;;;;;;9.82;1.83;;;16.20;99.90;;;;;;5083287;28;20488;-73
2023/05/23 08:24:57;;;;;;;8.50;1.52;;;16.30;99.90;;;;;;5084204;28;20042;-71
2023/05/23 08:27:22;;;;;;;7.05;1.15;;;16.20;99.90;;;;;;5089636;28;20114;-69
2023/05/23 08:29:48;;;;;;;7.03;1.23;;;16.30;99.90;;;;;;5086820;28;20087;-72
2023/05/23 08:32:16;;;;;;;4.15;1.00;;;16.50;99.90;;;;;;5085464;28;20024;-72
2023/05/23 08:34:42;;;;;;;10.23;1.27;;;16.80;99.90;;;;;;5081757;28;20855;-73
2023/05/23 08:37:08;;;;;;;10.25;1.60;;;17.00;99.90;;;;;;5083063;28;20063;-71
2023/05/23 08:39:34;;;;;;;7.70;1.63;;;17.10;99.90;;;;;;5081504;28;20059;-73
2023/05/23 08:41:59;;;;;;;11.45;1.88;;;17.20;99.40;;;;;;5080478;28;20043;-70
2023/05/23 08:44:31;;;;;;;9.85;1.30;;;17.00;99.00;;;;;;5085485;28;20035;-72
2023/05/23 08:47:04;;;;;;;9.57;1.70;;;17.00;99.10;;;;;;5081341;28;20064;-71
2023/05/23 08:49:30;;;;;;;6.35;1.35;;;17.10;98.60;;;;;;5081631;28;20032;-71
2023/05/23 08:52:01;;;;;;;15.13;1.40;;;17.10;99.40;;;;;;5082619;28;20035;-69
2023/05/23 08:54:28;;;;;;;5.55;1.15;;;17.20;98.80;;;;;;5083601;28;20661;-69
2023/05/23 08:56:54;;;;;;;6.82;1.63;;;17.20;98.20;;;;;;5079531;28;20038;-70
2023/05/23 08:59:21;;;;;;;6.30;1.23;;;17.10;98.00;;;;;;5082508;28;20020;-70
2023/05/23 09:01:48;;;;;;;6.28;1.60;;;17.30;97.70;;;;;;5079825;28;20444;-70
2023/05/23 09:04:20;;;;;;;5.53;0.68;;;17.30;98.30;;;;;;5081285;28;20031;-70
2023/05/23 09:06:45;;;;;;;6.35;1.00;;;17.40;98.10;;;;;;5082435;28;20032;-70
2023/05/23 09:09:11;;;;;;;8.52;1.30;;;17.40;97.80;;;;;;5083603;28;20537;-70
2023/05/23 09:11:36;;;;;;;11.32;1.38;;;17.10;98.40;;;;;;5081926;28;20677;-69
2023/05/23 09:14:03;;;;;;;8.25;1.77;;;16.80;98.70;;;;;;5076665;28;20036;-70
2023/05/23 09:16:36;;;;;;;10.18;1.27;;;16.70;98.20;;;;;;5080979;28;20115;-70
2023/05/23 09:19:20;;;;;;;6.53;1.55;;;16.60;98.40;;;;;;5076749;28;20686;-72
2023/05/23 09:21:46;;;;;;;6.18;1.00;;;16.80;97.80;;;;;;5079732;28;20514;-72
2023/05/23 09:24:11;;;;;;;6.30;1.10;;;16.80;98.60;;;;;;5080119;28;20029;-72
2023/05/23 09:26:37;;;;;;;8.73;1.48;;;17.00;98.10;;;;;;5084796;28;20398;-70
2023/05/23 09:29:06;;;;;;;10.30;1.77;;;17.00;98.60;;;;;;5079968;28;20124;-73
2023/05/23 09:31:32;;;;;;;10.45;1.40;;;17.10;98.50;;;;;;5079041;28;20824;-71
2023/05/23 09:34:01;;;;;;;5.68;1.08;;;17.10;98.60;;;;;;5079590;28;20205;-72
2023/05/23 09:36:32;;;;;;;11.52;1.23;;;17.10;98.40;;;;;;5080458;28;20491;-72
2023/05/23 09:39:03;;;;;;;7.10;1.30;;;16.90;98.10;;;;;;5081515;28;20044;-70
2023/05/23 09:41:32;;;;;;;5.90;1.13;;;16.80;98.40;;;;;;5082510;28;20135;-70
2023/05/23 09:43:57;;;;;;;7.38;1.05;;;16.90;98.60;;;;;;5081337;28;21898;-71
2023/05/23 09:46:28;;;;;;;7.90;1.73;;;16.90;98.30;;;;;;5081208;28;20028;-72
2023/05/23 09:48:54;;;;;;;8.20;1.20;;;16.90;98.60;;;;;;5079232;28;20097;-70
2023/05/23 09:51:21;;;;;;;5.38;1.30;;;16.90;98.30;;;;;;5082697;28;20421;-72
2023/05/23 09:53:48;;;;;;;8.80;1.88;;;16.90;98.10;;;;;;5082059;28;20030;-71
2023/05/23 09:56:16;;;;;;;5.78;0.93;;;17.20;98.10;;;;;;5081570;28;20032;-70
2023/05/23 09:58:45;;;;;;;8.48;1.48;;;17.30;98.00;;;;;;5083078;28;20109;-72
2023/05/23 10:01:12;;;;;;;7.47;1.42;;;17.50;98.10;;;;;;5084557;28;20063;-73
2023/05/23 10:03:56;;;;;;;7.70;1.05;;;17.80;98.10;;;;;;5080314;28;20070;-74
2023/05/23 10:06:31;;;;;;;15.00;1.38;;;17.70;97.50;;;;;;5084612;28;20032;-71
2023/05/23 10:09:04;;;;;;;5.05;0.93;;;17.60;97.30;;;;;;5082089;28;20040;-70
2023/05/23 10:11:33;;;;;;;10.93;1.33;;;17.50;97.60;;;;;;5082596;28;20047;-70
2023/05/23 10:14:07;;;;;;;5.10;1.52;;;17.60;98.00;;;;;;5079168;28;20044;-69
2023/05/23 10:16:59;;;;;;;6.97;1.35;;;17.70;97.50;;;;;;5083983;28;20027;-69
2023/05/23 10:19:38;;;;;;;12.73;1.50;;;17.70;97.20;;;;;;5074123;28;20096;-70
2023/05/23 10:22:08;;;;;;;9.35;1.25;;;17.40;97.30;;;;;;5084879;28;20078;-74
2023/05/23 10:24:37;;;;;;;4.53;0.85;;;17.30;97.80;;;;;;5086199;28;20042;-73
2023/05/23 10:27:03;;;;;;;7.68;1.10;;;17.50;96.90;;;;;;5083020;28;20039;-74
2023/05/23 10:29:29;;;;;;;9.20;2.00;;;17.40;97.50;;;;;;5083470;28;20761;-72
2023/05/23 10:31:56;;;;;;;6.10;1.58;;;17.40;97.10;;;;;;5078869;28;20089;-72
2023/05/23 10:34:43;;;;;;;12.63;1.40;;;17.50;97.30;;;;;;5081716;28;20059;-70
2023/05/23 10:37:16;;;;;;;9.35;1.05;;;17.50;97.10;;;;;;5082697;28;20043;-71
2023/05/23 10:40:04;;;;;;;6.88;2.00;;;17.70;97.60;;;;;;5081976;28;20747;-71
2023/05/23 10:42:30;;;;;;;5.45;0.88;;;17.90;97.70;;;;;;5084608;28;20036;-71
2023/05/23 10:45:17;;;;;;;8.07;1.27;;;17.70;97.40;;;;;;5087526;27;20038;-70
2023/05/23 10:47:43;;;;;;;14.05;1.58;;;17.60;97.30;;;;;;5085490;28;20044;-72
2023/05/23 10:50:13;;;;;;;6.03;1.05;;;17.30;97.70;;;;;;5083370;28;20530;-70
2023/05/23 10:52:40;;;;;;;7.93;0.82;;;17.30;97.50;;;;;;5083558;28;20036;-72
2023/05/23 10:55:14;;;;;;;11.73;1.60;;;17.30;97.30;;;;;;5086506;28;20068;-72
2023/05/23 10:57:42;;;;;;;6.97;1.55;;;17.30;97.60;;;;;;5082805;28;20130;-69
2023/05/23 11:00:15;;;;;;;7.43;1.15;;;17.50;96.90;;;;;;5086163;28;20042;-71
2023/05/23 11:02:58;;;;;;;7.38;1.25;;;17.70;96.30;;;;;;5086038;28;20070;-70
2023/05/23 11:05:27;;;;;;;12.48;2.03;;;17.70;96.20;;;;;;5085848;28;20032;-71
2023/05/23 11:08:07;;;;;;;13.18;2.13;;;17.60;96.30;;;;;;5083418;28;20147;-73
2023/05/23 11:10:51;;;;;;;6.00;1.40;;;17.50;96.70;;;;;;5083495;28;20090;-71
2023/05/23 11:13:20;;;;;;;7.32;1.45;;;17.10;97.20;;;;;;5088171;28;20039;-70
2023/05/23 11:15:46;;;;;;;10.50;1.83;;;17.00;97.90;;;;;;5083786;28;20055;-70
2023/05/23 11:18:33;;;;;;;8.63;1.02;;;16.80;97.70;;;;;;5084988;28;20483;-70
2023/05/23 11:21:00;;;;;;;9.68;1.73;;;16.60;98.50;;;;;;5085899;28;20245;-70
2023/05/23 11:23:40;;;;;;;11.23;1.70;;;16.50;98.20;;;;;;5090578;28;20036;-74
2023/05/23 11:26:30;;;;;;;12.77;1.73;;;16.50;98.00;;;;;;5085818;28;20036;-70
2023/05/23 11:28:57;;;;;;;5.40;1.07;;;16.70;98.20;;;;;;5082969;28;20495;-74
2023/05/23 11:31:23;;;;;;;3.95;1.02;;;17.00;97.00;;;;;;5086435;28;20111;-70
2023/05/23 11:33:51;;;;;;;9.15;1.13;;;17.30;97.20;;;;;;5083368;28;20629;-72
2023/05/23 11:36:17;;;;;;;7.40;1.20;;;17.50;95.70;;;;;;5081892;28;20528;-71
2023/05/23 11:38:43;;;;;;;5.15;1.08;;;17.60;95.80;;;;;;5082297;28;20054;-70
2023/05/23 11:41:08;;;;;;;9.65;1.10;;;17.80;95.90;;;;;;5087765;28;20040;-70
2023/05/23 11:43:34;;;;;;;5.75;1.15;;;17.90;95.50;;;;;;5083599;28;20047;-69
2023/05/23 11:46:07;;;;;;;6.47;1.17;;;18.10;94.70;;;;;;5085138;27;20615;-71
2023/05/23 11:48:44;;;;;;;5.03;1.20;;;17.90;94.90;;;;;;5086579;28;20440;-69
2023/05/23 11:51:09;;;;;;;7.00;1.30;;;17.90;95.30;;;;;;5088407;28;20081;-72
2023/05/23 11:53:35;;;;;;;7.95;1.25;;;17.90;95.80;;;;;;5088489;28;20131;-69
2023/05/23 11:56:02;;;;;;;6.03;0.80;;;18.10;96.20;;;;;;5081654;28;20082;-72
2023/05/23 11:58:35;;;;;;;9.48;1.08;;;18.00;94.70;;;;;;5085398;28;21149;-70
2023/05/23 12:01:06;;;;;;;5.47;1.65;;;17.80;95.10;;;;;;5085064;28;20479;-73
2023/05/23 12:03:33;;;;;;;3.72;1.10;;;17.70;95.20;;;;;;5084079;28;20036;-71
2023/05/23 12:05:59;;;;;;;9.35;1.05;;;17.60;95.50;;;;;;5082399;28;20040;-71
2023/05/23 12:08:28;;;;;;;3.70;0.90;;;17.50;96.00;;;;;;5083684;28;20056;-69
2023/05/23 12:10:57;;;;;;;7.63;1.95;;;17.40;96.40;;;;;;5082683;28;20089;-72
2023/05/23 12:13:28;;;;;;;13.05;1.30;;;17.30;96.90;;;;;;5086231;28;20103;-70
2023/05/23 12:16:01;;;;;;;9.05;1.42;;;17.50;95.60;;;;;;5084984;28;20126;-70
2023/05/23 12:18:29;;;;;;;11.82;1.40;;;17.50;96.30;;;;;;5085020;28;20105;-68
2023/05/23 12:21:02;;;;;;;5.10;1.38;;;17.60;94.70;;;;;;5085116;28;20059;-68
2023/05/23 12:23:28;;;;;;;8.18;1.40;;;17.60;94.40;;;;;;5087578;28;20043;-72
2023/05/23 12:25:55;;;;;;;7.80;1.05;;;17.40;94.70;;;;;;5080569;28;20113;-70
2023/05/23 12:28:36;;;;;;;8.88;1.30;;;17.60;95.70;;;;;;5081640;28;20201;-69
2023/05/23 12:31:12;;;;;;;10.27;1.15;;;17.70;95.40;;;;;;5083417;28;20388;-70
2023/05/23 12:33:43;;;;;;;6.22;0.90;;;17.90;95.60;;;;;;5084834;28;20079;-71
2023/05/23 12:36:09;;;;;;;3.80;1.10;;;18.00;94.30;;;;;;5079116;28;20043;-72
2023/05/23 12:38:39;;;;;;;6.78;1.08;;;17.90;94.00;;;;;;5084221;28;20136;-73
2023/05/23 12:41:08;;;;;;;4.20;0.80;;;17.70;94.00;;;;;;5084892;28;20032;-69
2023/05/23 12:43:48;;;;;;;8.70;1.15;;;17.60;94.10;;;;;;5086307;28;20107;-72
2023/05/23 12:46:14;;;;;;;4.32;1.42;;;17.60;93.40;;;;;;5083155;28;20035;-70
2023/05/23 12:48:39;;;;;;;3.45;0.80;;;17.40;93.30;;;;;;5083441;28;20028;-69
2023/05/23 12:51:05;;;;;;;2.78;0.95;;;17.20;93.20;;;;;;5091086;28;20038;-70